createdAt,value
2022-11-04T00:01:23.870Z,13.70
2022-11-04T00:03:51.960Z,13.72
2022-11-04T00:06:20.097Z,13.69
2022-11-04T00:08:50.315Z,13.68
2022-11-04T00:11:35.942Z,13.69
2022-11-04T00:14:04.283Z,13.68
2022-11-04T00:16:50.771Z,13.69
2022-11-04T00:19:18.735Z,13.70
2022-11-04T00:22:03.782Z,13.69
2022-11-04T00:24:54.206Z,13.68
2022-11-04T00:27:40.048Z,13.66
2022-11-04T00:30:10.616Z,13.66
2022-11-04T00:32:57.462Z,13.67
2022-11-04T00:35:25.127Z,13.67
2022-11-04T00:37:53.078Z,13.67
2022-11-04T00:40:20.857Z,13.66
2022-11-04T00:42:48.574Z,13.63
2022-11-04T00:45:16.336Z,13.60
2022-11-04T00:47:45.340Z,13.56
2022-11-04T00:50:12.964Z,13.50
2022-11-04T00:52:40.650Z,13.49
2022-11-04T00:55:09.173Z,13.42
2022-11-04T00:57:36.807Z,13.44
2022-11-04T01:00:05.276Z,13.42
2022-11-04T01:02:33.129Z,13.43
2022-11-04T01:05:02.270Z,13.44
2022-11-04T01:07:29.895Z,13.43
2022-11-04T01:09:57.546Z,13.43
2022-11-04T01:12:25.245Z,13.40
2022-11-04T01:14:53.399Z,13.38
2022-11-04T01:17:21.634Z,13.39
2022-11-04T01:19:49.300Z,13.39
2022-11-04T01:22:18.340Z,13.38
2022-11-04T01:24:46.060Z,13.42
2022-11-04T01:27:13.639Z,13.39
2022-11-04T01:29:41.272Z,13.38
2022-11-04T01:32:09.098Z,13.39
2022-11-04T01:34:42.337Z,13.41
2022-11-04T01:37:11.515Z,13.39
2022-11-04T01:39:40.585Z,13.39
2022-11-04T01:42:08.780Z,13.38
2022-11-04T01:44:51.621Z,13.35
2022-11-04T01:47:21.396Z,13.34
2022-11-04T01:49:52.238Z,13.32
2022-11-04T01:52:23.771Z,13.33
2022-11-04T01:54:53.736Z,13.33
2022-11-04T01:57:25.773Z,13.37
2022-11-04T01:59:53.797Z,13.35
2022-11-04T02:02:21.595Z,13.31
2022-11-04T02:04:49.807Z,13.25
2022-11-04T02:07:17.676Z,13.22
2022-11-04T02:09:45.563Z,13.16
2022-11-04T02:12:32.738Z,13.16
2022-11-04T02:15:00.510Z,13.16
2022-11-04T02:17:39.763Z,13.14
2022-11-04T02:20:28.983Z,13.14
2022-11-04T02:23:17.661Z,13.13
2022-11-04T02:26:03.616Z,13.11
2022-11-04T02:28:47.255Z,13.07
2022-11-04T02:31:20.128Z,13.03
2022-11-04T02:33:50.488Z,12.99
2022-11-04T02:36:23.720Z,12.97
2022-11-04T02:38:54.447Z,12.87
2022-11-04T02:41:28.089Z,12.91
2022-11-04T02:44:04.647Z,12.90
2022-11-04T02:46:36.731Z,12.90
2022-11-04T02:49:09.156Z,12.86
2022-11-04T02:51:39.709Z,12.86
2022-11-04T02:54:09.704Z,12.75
2022-11-04T02:56:38.971Z,12.83
2022-11-04T02:59:09.829Z,12.80
2022-11-04T03:01:42.989Z,12.82
2022-11-04T03:04:15.754Z,12.77
2022-11-04T03:06:44.843Z,12.76
2022-11-04T03:09:14.510Z,12.83
2022-11-04T03:11:45.313Z,12.82
2022-11-04T03:14:16.329Z,12.85
2022-11-04T03:16:48.060Z,12.84
2022-11-04T03:19:18.080Z,12.79
2022-11-04T03:21:50.140Z,12.79
2022-11-04T03:24:18.026Z,12.79
2022-11-04T03:26:48.465Z,12.77
2022-11-04T03:29:23.247Z,12.72
2022-11-04T03:32:00.289Z,12.68
2022-11-04T03:34:28.521Z,12.69
2022-11-04T03:36:56.120Z,12.68
2022-11-04T03:39:23.869Z,12.72
2022-11-04T03:41:55.120Z,12.70
2022-11-04T03:44:23.236Z,12.65
2022-11-04T03:46:52.941Z,12.63
2022-11-04T03:49:22.503Z,12.66
2022-11-04T03:51:50.174Z,12.70
2022-11-04T03:54:18.469Z,12.66
2022-11-04T03:57:11.658Z,12.63
2022-11-04T03:59:58.088Z,12.59
2022-11-04T04:02:34.635Z,12.54
2022-11-04T04:05:04.876Z,12.52
2022-11-04T04:07:35.341Z,12.50
2022-11-04T04:10:29.027Z,12.51
2022-11-04T04:12:59.664Z,12.49
2022-11-04T04:15:30.964Z,12.42
2022-11-04T04:18:04.503Z,12.49
2022-11-04T04:20:35.700Z,12.53
2022-11-04T04:23:26.523Z,12.47
2022-11-04T04:26:12.380Z,12.50
2022-11-04T04:28:40.494Z,12.47
2022-11-04T04:31:08.812Z,12.52
2022-11-04T04:33:38.464Z,12.50
2022-11-04T04:36:07.787Z,12.51
2022-11-04T04:38:53.893Z,12.54
2022-11-04T04:41:40.511Z,12.49
2022-11-04T04:44:32.714Z,12.52
2022-11-04T04:47:02.457Z,12.53
2022-11-04T04:49:35.261Z,12.56
2022-11-04T04:52:04.391Z,12.56
2022-11-04T04:54:32.330Z,12.56
2022-11-04T04:56:59.980Z,12.55
2022-11-04T04:59:27.651Z,12.50
2022-11-04T05:01:55.443Z,12.50
2022-11-04T05:04:25.853Z,12.50
2022-11-04T05:06:54.966Z,12.48
2022-11-04T05:09:22.757Z,12.50
2022-11-04T05:11:50.429Z,12.50
2022-11-04T05:14:18.128Z,12.50
2022-11-04T05:16:46.137Z,12.47
2022-11-04T05:19:13.784Z,12.46
2022-11-04T05:21:41.422Z,12.39
2022-11-04T05:24:11.302Z,12.49
2022-11-04T05:26:39.062Z,12.49
2022-11-04T05:29:06.928Z,12.48
2022-11-04T05:31:34.751Z,12.50
2022-11-04T05:34:02.421Z,12.50
2022-11-04T05:36:30.157Z,12.49
2022-11-04T05:38:57.789Z,12.50
2022-11-04T05:41:26.844Z,12.49
2022-11-04T05:43:54.925Z,12.45
2022-11-04T05:46:23.016Z,12.45
2022-11-04T05:48:50.808Z,12.42
2022-11-04T05:51:20.717Z,12.32
2022-11-04T05:53:48.502Z,12.36
2022-11-04T05:56:16.160Z,12.34
2022-11-04T05:58:45.387Z,12.27
2022-11-04T06:01:15.222Z,12.30
2022-11-04T06:03:43.308Z,12.23
2022-11-04T06:06:10.909Z,12.23
2022-11-04T06:08:44.922Z,12.23
2022-11-04T06:11:13.358Z,12.20
2022-11-04T06:13:41.053Z,12.20
2022-11-04T06:16:10.186Z,12.18
2022-11-04T06:18:37.933Z,12.08
2022-11-04T06:21:10.983Z,12.15
2022-11-04T06:23:38.710Z,12.17
2022-11-04T06:26:06.609Z,12.13
2022-11-04T06:28:34.335Z,12.13
2022-11-04T06:31:04.267Z,12.11
2022-11-04T06:33:36.780Z,12.08
2022-11-04T06:36:07.601Z,12.05
2022-11-04T06:38:36.652Z,12.02
2022-11-04T06:43:33.648Z,12.04
2022-11-04T06:46:02.490Z,12.04
2022-11-04T06:48:31.720Z,12.00
2022-11-04T06:51:01.377Z,12.03
2022-11-04T06:53:30.243Z,12.04
2022-11-04T06:56:04.102Z,12.04
2022-11-04T06:58:31.792Z,12.01
2022-11-04T07:00:59.727Z,12.08
2022-11-04T07:03:27.481Z,12.07
2022-11-04T07:05:55.246Z,12.08
2022-11-04T07:08:24.411Z,12.03
2022-11-04T07:10:52.095Z,12.09
2022-11-04T07:13:19.781Z,12.12
2022-11-04T07:15:47.510Z,12.15
2022-11-04T07:18:15.435Z,12.18
2022-11-04T07:20:43.201Z,12.20
2022-11-04T07:23:10.885Z,12.20
2022-11-04T07:25:40.011Z,12.20
2022-11-04T07:28:08.135Z,12.21
2022-11-04T07:30:36.032Z,12.11
2022-11-04T07:33:03.709Z,12.18
2022-11-04T07:35:31.449Z,12.14
2022-11-04T07:37:59.175Z,12.14
2022-11-04T07:40:28.530Z,12.14
2022-11-04T07:42:57.631Z,12.19
2022-11-04T07:45:25.297Z,12.18
2022-11-04T07:47:52.939Z,12.17
2022-11-04T07:50:20.625Z,12.15
2022-11-04T07:52:48.717Z,12.19
2022-11-04T07:55:18.569Z,12.20
2022-11-04T07:57:46.388Z,12.23
2022-11-04T08:00:17.146Z,12.26
2022-11-04T08:02:46.759Z,12.27
2022-11-04T08:05:14.831Z,12.27
2022-11-04T08:07:42.667Z,12.30
2022-11-04T08:10:11.262Z,12.31
2022-11-04T08:12:39.176Z,12.32
2022-11-04T08:15:08.225Z,12.36
2022-11-04T08:17:37.280Z,12.37
2022-11-04T08:20:08.710Z,12.38
2022-11-04T08:22:36.451Z,12.39
2022-11-04T08:25:04.240Z,12.42
2022-11-04T08:27:31.870Z,12.46
2022-11-04T08:29:59.589Z,12.45
2022-11-04T08:32:27.325Z,12.49
2022-11-04T08:34:56.371Z,12.52
2022-11-04T08:37:24.007Z,12.52
2022-11-04T08:39:51.845Z,12.56
2022-11-04T08:42:19.475Z,12.53
2022-11-04T08:44:47.598Z,12.47
2022-11-04T08:47:15.248Z,12.46
2022-11-04T08:49:42.936Z,12.45
2022-11-04T08:52:12.000Z,12.50
2022-11-04T08:54:39.672Z,12.49
2022-11-04T08:57:07.593Z,12.49
2022-11-04T08:59:35.253Z,12.45
2022-11-04T09:02:02.961Z,12.51
2022-11-04T09:04:30.700Z,12.54
2022-11-04T09:06:59.249Z,12.55
2022-11-04T09:09:28.633Z,12.61
2022-11-04T09:11:56.252Z,12.62
2022-11-04T09:14:24.187Z,12.62
2022-11-04T09:16:51.836Z,12.64
2022-11-04T09:19:19.464Z,12.64
2022-11-04T09:21:47.186Z,12.63
2022-11-04T09:24:14.889Z,12.66
2022-11-04T09:26:44.657Z,12.69
2022-11-04T09:29:12.420Z,12.72
2022-11-04T09:31:40.301Z,12.74
2022-11-04T09:34:07.924Z,12.76
2022-11-04T09:36:35.541Z,12.78
2022-11-04T09:39:03.167Z,12.75
2022-11-04T09:41:52.494Z,12.76
2022-11-04T09:44:24.641Z,12.86
2022-11-04T09:46:54.428Z,12.90
2022-11-04T09:49:22.518Z,12.92
2022-11-04T09:51:54.849Z,12.98
2022-11-04T09:54:26.047Z,12.99
2022-11-04T09:56:56.716Z,12.97
2022-11-04T09:59:27.393Z,12.97
2022-11-04T10:02:08.891Z,13.00
2022-11-04T10:04:46.602Z,13.15
2022-11-04T10:07:25.336Z,13.16
2022-11-04T10:10:00.177Z,13.18
2022-11-04T10:12:42.362Z,13.14
2022-11-04T10:15:22.802Z,13.23
2022-11-04T10:17:59.365Z,13.25
2022-11-04T10:20:42.698Z,13.24
2022-11-04T10:23:22.502Z,13.26
2022-11-04T10:25:51.427Z,13.29
2022-11-04T10:28:23.749Z,13.32
2022-11-04T10:30:52.456Z,13.40
2022-11-04T10:33:27.905Z,13.47
2022-11-04T10:35:58.479Z,13.40
2022-11-04T10:38:33.808Z,13.37
2022-11-04T10:41:06.932Z,13.34
2022-11-04T10:43:38.988Z,13.32
2022-11-04T10:46:22.097Z,13.31
2022-11-04T10:48:52.123Z,13.29
2022-11-04T10:51:22.233Z,13.29
2022-11-04T10:53:54.757Z,13.35
2022-11-04T10:56:29.314Z,13.44
2022-11-04T10:59:01.873Z,13.53
2022-11-04T11:01:33.883Z,13.60
2022-11-04T11:04:02.356Z,13.64
2022-11-04T11:06:31.497Z,13.70
2022-11-04T11:09:00.985Z,13.75
2022-11-04T11:11:40.220Z,13.84
2022-11-04T11:14:19.812Z,13.82
2022-11-04T11:16:48.166Z,13.82
2022-11-04T11:19:21.289Z,13.81
2022-11-04T11:21:50.023Z,13.82
2022-11-04T11:24:21.792Z,13.83
2022-11-04T11:26:50.732Z,13.87
2022-11-04T11:29:24.491Z,13.84
2022-11-04T11:31:53.137Z,13.91
2022-11-04T11:34:22.861Z,13.86
2022-11-04T11:36:51.124Z,13.84
2022-11-04T11:39:21.939Z,13.85
2022-11-04T11:41:53.692Z,13.89
2022-11-04T11:44:28.646Z,13.94
2022-11-04T11:46:57.985Z,13.99
2022-11-04T11:49:28.977Z,14.06
2022-11-04T11:51:57.150Z,14.10
2022-11-04T11:54:33.331Z,14.15
2022-11-04T11:57:14.243Z,14.16
2022-11-04T12:02:41.609Z,14.21
2022-11-04T12:10:55.933Z,14.03
2022-11-04T12:13:28.204Z,13.98
2022-11-04T12:16:10.512Z,13.88
2022-11-04T12:18:52.753Z,13.92
2022-11-04T12:21:33.324Z,13.93
2022-11-04T12:24:06.898Z,13.91
2022-11-04T12:26:38.272Z,13.86
2022-11-04T12:29:27.630Z,13.83
2022-11-04T12:32:04.472Z,13.77
2022-11-04T12:34:43.860Z,13.75
2022-11-04T12:37:19.680Z,13.81
2022-11-04T12:39:57.378Z,13.82
2022-11-04T12:42:32.841Z,13.81
2022-11-04T12:45:12.713Z,13.88
2022-11-04T12:47:44.481Z,13.91
2022-11-04T12:50:34.224Z,13.94
2022-11-04T12:53:18.222Z,13.91
2022-11-04T12:55:51.046Z,14.05
2022-11-04T12:58:39.885Z,14.11
2022-11-04T13:02:16.963Z,14.19
2022-11-04T13:04:49.852Z,14.22
2022-11-04T13:07:21.957Z,14.24
2022-11-04T13:09:54.096Z,14.24
2022-11-04T13:12:23.766Z,14.23
2022-11-04T13:15:15.404Z,14.30
2022-11-04T13:17:44.835Z,14.40
2022-11-04T13:20:19.502Z,14.42
2022-11-04T13:22:49.336Z,14.44
2022-11-04T13:25:20.677Z,14.44
2022-11-04T13:27:49.520Z,14.50
2022-11-04T13:30:23.106Z,14.53
2022-11-04T13:32:55.639Z,14.52
2022-11-04T13:35:30.160Z,14.60
2022-11-04T13:38:01.207Z,14.61
2022-11-04T13:40:32.929Z,14.61
2022-11-04T13:43:36.402Z,14.62
2022-11-04T13:46:08.401Z,14.58
2022-11-04T13:48:38.067Z,14.55
2022-11-04T13:51:08.323Z,14.48
2022-11-04T13:53:44.413Z,14.41
2022-11-04T13:56:34.641Z,14.33
2022-11-04T13:59:07.546Z,14.31
2022-11-04T14:01:36.720Z,14.24
2022-11-04T14:04:30.069Z,14.22
2022-11-04T14:10:03.480Z,14.17
2022-11-04T14:12:35.424Z,14.19
2022-11-04T14:15:12.075Z,14.22
2022-11-04T14:17:59.337Z,14.27
2022-11-04T14:20:31.274Z,14.24
2022-11-04T14:23:00.124Z,14.19
2022-11-04T14:25:32.032Z,14.16
2022-11-04T14:28:01.633Z,14.12
2022-11-04T14:32:02.375Z,14.16
2022-11-04T14:34:32.178Z,14.15
2022-11-04T14:37:00.961Z,14.16
2022-11-04T14:39:31.209Z,14.12
2022-11-04T14:42:01.687Z,14.09
2022-11-04T14:44:35.529Z,14.06
2022-11-04T14:47:18.495Z,14.07
2022-11-04T14:49:48.239Z,14.08
2022-11-04T14:52:21.575Z,14.05
2022-11-04T14:54:49.396Z,14.02
2022-11-04T14:57:18.532Z,14.02
2022-11-04T14:59:46.628Z,14.02
2022-11-04T15:02:18.463Z,14.02
2022-11-04T15:04:53.383Z,14.02
2022-11-04T15:07:27.024Z,13.96
2022-11-04T15:09:54.635Z,14.03
2022-11-04T15:12:40.022Z,13.99
2022-11-04T15:15:40.073Z,13.99
2022-11-04T15:18:10.250Z,13.97
2022-11-04T15:20:42.054Z,13.97
2022-11-04T15:23:15.000Z,13.96
2022-11-04T15:25:50.254Z,13.91
2022-11-04T15:28:23.277Z,13.90
2022-11-04T15:31:06.529Z,13.84
2022-11-04T15:33:39.653Z,13.88
2022-11-04T15:36:18.838Z,13.88
2022-11-04T15:38:48.524Z,13.85
2022-11-04T15:41:38.328Z,13.86
2022-11-04T15:44:08.127Z,13.83
2022-11-04T15:46:35.777Z,13.83
2022-11-04T15:49:06.624Z,13.81
2022-11-04T15:51:39.139Z,13.82
2022-11-04T15:54:09.013Z,13.83
2022-11-04T15:56:41.118Z,13.81
2022-11-04T15:59:10.495Z,13.81
2022-11-04T16:01:46.042Z,13.79
2022-11-04T16:04:16.443Z,13.79
2022-11-04T16:06:47.918Z,13.79
2022-11-04T16:09:23.559Z,13.88
2022-11-04T16:12:10.738Z,13.93
2022-11-04T16:14:38.419Z,13.97
2022-11-04T16:17:06.029Z,14.02
2022-11-04T16:19:35.138Z,14.04
2022-11-04T16:22:04.657Z,14.02
2022-11-04T16:24:33.531Z,14.04
2022-11-04T16:27:01.622Z,14.05
2022-11-04T16:29:31.136Z,14.00
2022-11-04T16:32:08.235Z,14.04
2022-11-04T16:34:37.260Z,14.05
2022-11-04T16:37:04.878Z,14.05
2022-11-04T16:39:33.229Z,14.05
2022-11-04T16:42:00.936Z,14.06
2022-11-04T16:44:28.743Z,14.07
2022-11-04T16:46:57.642Z,14.07
2022-11-04T16:49:25.312Z,14.07
2022-11-04T16:51:56.153Z,14.05
2022-11-04T16:54:24.603Z,14.07
2022-11-04T16:56:52.269Z,14.08
2022-11-04T16:59:19.907Z,14.07
2022-11-04T17:01:47.691Z,14.05
2022-11-04T17:04:15.494Z,14.08
2022-11-04T17:06:46.103Z,14.06
2022-11-04T17:11:22.202Z,14.03
2022-11-04T17:17:43.133Z,13.95
2022-11-04T17:20:13.101Z,13.89
2022-11-04T17:23:46.416Z,13.79
2022-11-04T17:26:14.173Z,13.74
2022-11-04T17:28:42.045Z,13.73
2022-11-04T17:31:11.710Z,13.70
2022-11-04T17:33:39.296Z,13.66
2022-11-04T17:36:07.963Z,13.62
2022-11-04T17:38:35.725Z,13.59
2022-11-04T17:41:22.039Z,13.56
2022-11-04T17:44:01.657Z,13.53
2022-11-04T17:46:35.091Z,13.49
2022-11-04T17:49:03.575Z,13.47
2022-11-04T17:51:31.766Z,13.43
2022-11-04T17:53:59.377Z,13.41
2022-11-04T17:56:28.505Z,13.41
2022-11-04T17:58:56.112Z,13.39
2022-11-04T18:01:24.711Z,13.38
2022-11-04T18:03:53.491Z,13.38
2022-11-04T18:06:21.427Z,13.37
2022-11-04T18:08:49.424Z,13.35
2022-11-04T18:11:31.156Z,13.34
2022-11-04T18:14:00.170Z,13.31
2022-11-04T18:16:27.774Z,13.28
2022-11-04T18:18:55.386Z,13.26
2022-11-04T18:21:22.973Z,13.21
2022-11-04T18:23:50.568Z,13.22
2022-11-04T18:26:18.891Z,13.21
2022-11-04T18:28:46.649Z,13.18
2022-11-04T18:31:21.531Z,13.17
2022-11-04T18:33:49.161Z,13.15
2022-11-04T18:36:16.787Z,13.16
2022-11-04T18:40:41.792Z,13.21
2022-11-04T18:43:09.717Z,13.20
2022-11-04T18:45:37.493Z,13.19
2022-11-04T18:48:05.955Z,13.16
2022-11-04T18:50:34.302Z,13.13
2022-11-04T18:53:01.908Z,13.10
2022-11-04T18:55:29.574Z,13.08
2022-11-04T18:57:58.632Z,13.05
2022-11-04T19:00:26.592Z,13.04
2022-11-04T19:02:54.199Z,13.03
2022-11-04T19:05:21.826Z,13.00
2022-11-04T19:07:49.513Z,12.96
2022-11-04T19:10:17.176Z,12.94
2022-11-04T19:13:07.749Z,12.95
2022-11-04T19:15:36.775Z,12.91
2022-11-04T19:18:04.497Z,12.90
2022-11-04T19:20:32.208Z,12.90
2022-11-04T19:22:59.907Z,12.90
2022-11-04T19:25:27.628Z,12.85
2022-11-04T19:28:18.746Z,12.88
2022-11-04T19:30:45.486Z,12.86
2022-11-04T19:33:13.090Z,12.84
2022-11-04T19:35:41.430Z,12.83
2022-11-04T19:38:09.479Z,12.80
2022-11-04T19:40:37.293Z,12.76
2022-11-04T19:43:09.771Z,12.76
2022-11-04T19:45:40.339Z,12.71
2022-11-04T19:48:10.030Z,12.67
2022-11-04T19:50:41.922Z,12.66
2022-11-04T19:53:09.631Z,12.64
2022-11-04T19:55:37.656Z,12.61
2022-11-04T19:58:05.312Z,12.59
2022-11-04T20:00:33.879Z,12.56
2022-11-04T20:03:01.492Z,12.51
2022-11-04T20:05:30.523Z,12.50
2022-11-04T20:08:03.157Z,12.48
2022-11-04T20:10:36.126Z,12.45
2022-11-04T20:13:21.426Z,12.42
2022-11-04T20:15:49.022Z,12.37
2022-11-04T20:18:16.617Z,12.36
2022-11-04T20:20:45.631Z,12.34
2022-11-04T20:23:13.246Z,12.32
2022-11-04T20:25:40.889Z,12.30
2022-11-04T20:28:08.808Z,12.29
2022-11-04T20:30:37.575Z,12.26
2022-11-04T20:33:05.735Z,12.23
2022-11-04T20:37:50.444Z,12.24
2022-11-04T20:40:18.150Z,12.20
2022-11-04T20:42:48.651Z,12.20
2022-11-04T20:45:16.612Z,12.17
2022-11-04T20:47:44.421Z,12.14
2022-11-04T20:50:12.186Z,12.12
2022-11-04T20:52:39.984Z,12.08
2022-11-04T20:58:02.271Z,12.09
2022-11-04T21:00:30.215Z,12.07
2022-11-04T21:02:57.949Z,12.04
2022-11-04T21:09:21.801Z,12.17
2022-11-04T21:11:50.150Z,12.12
2022-11-04T21:14:19.506Z,12.09
2022-11-04T21:16:47.810Z,12.04
2022-11-04T21:19:15.866Z,12.01
2022-11-04T21:21:43.806Z,11.97
2022-11-04T21:24:14.002Z,11.95
2022-11-04T21:26:43.524Z,11.91
2022-11-04T21:29:13.423Z,11.83
2022-11-04T21:31:41.160Z,11.79
2022-11-04T21:34:08.867Z,11.74
2022-11-04T21:36:36.665Z,11.73
2022-11-04T21:39:04.824Z,11.69
2022-11-04T21:41:37.032Z,11.67
2022-11-04T21:44:08.321Z,11.64
2022-11-04T21:46:36.843Z,11.61
2022-11-04T21:49:04.820Z,11.59
2022-11-04T21:51:34.492Z,11.55
2022-11-04T21:54:02.147Z,11.54
2022-11-04T21:56:32.897Z,11.52
2022-11-04T21:59:00.659Z,11.52
2022-11-04T22:01:31.146Z,11.48
2022-11-04T22:04:00.731Z,11.48
2022-11-04T22:06:34.197Z,11.47
2022-11-04T22:09:04.145Z,11.45
2022-11-04T22:11:33.402Z,11.45
2022-11-04T22:14:03.742Z,11.46
2022-11-04T22:16:35.034Z,11.49
2022-11-04T22:19:04.691Z,11.47
2022-11-04T22:21:33.037Z,11.50
2022-11-04T22:24:01.179Z,11.51
2022-11-04T22:26:30.172Z,11.49
2022-11-04T22:30:46.119Z,11.58
2022-11-04T22:34:47.481Z,11.60
2022-11-04T22:37:15.065Z,11.57
2022-11-04T22:39:42.670Z,11.52
2022-11-04T22:42:10.875Z,11.50
2022-11-04T22:44:38.537Z,11.45
2022-11-04T22:47:06.211Z,11.40
2022-11-04T22:49:33.887Z,11.38
2022-11-04T22:52:03.104Z,11.35
2022-11-04T22:54:30.722Z,11.31
2022-11-04T22:56:58.530Z,11.28
2022-11-04T22:59:26.198Z,11.23
2022-11-04T23:01:53.937Z,11.21
2022-11-04T23:04:21.693Z,11.14
2022-11-04T23:06:49.315Z,11.15
2022-11-04T23:09:18.471Z,11.13
2022-11-04T23:12:11.840Z,11.09
2022-11-04T23:14:57.020Z,11.06
2022-11-04T23:17:42.179Z,11.02
2022-11-04T23:20:11.869Z,11.00
2022-11-04T23:22:57.540Z,11.00
2022-11-04T23:25:27.146Z,10.93
2022-11-04T23:28:13.137Z,10.98
2022-11-04T23:30:43.525Z,10.96
2022-11-04T23:33:13.377Z,10.94
2022-11-04T23:36:00.162Z,10.94
2022-11-04T23:38:29.298Z,10.91
2022-11-04T23:41:17.632Z,10.91
2022-11-04T23:43:45.600Z,10.88
2022-11-04T23:46:30.567Z,10.88
2022-11-04T23:49:20.862Z,10.86
2022-11-04T23:52:06.060Z,10.83
2022-11-04T23:54:51.335Z,10.82
2022-11-04T23:57:37.742Z,10.80
